sensor_id;sensor_type;location;lat;lon;timestamp;pressure;altitude;pressure_sealevel;temperature;humidity
58471;BME280;44258;51.288;12.068;2023-06-24T00:01:08;101259.97;;;17.93;69.27
58471;BME280;44258;51.288;12.068;2023-06-24T00:03:58;101255.28;;;17.96;69.17
58471;BME280;44258;51.288;12.068;2023-06-24T00:06:45;101258.31;;;17.91;69.42
58471;BME280;44258;51.288;12.068;2023-06-24T00:09:32;101266.63;;;17.89;69.64
58471;BME280;44258;51.288;12.068;2023-06-24T00:12:19;101271.19;;;17.89;69.69
58471;BME280;44258;51.288;12.068;2023-06-24T00:15:08;101272.81;;;17.79;69.62
58471;BME280;44258;51.288;12.068;2023-06-24T00:17:57;101266.09;;;17.71;69.70
58471;BME280;44258;51.288;12.068;2023-06-24T00:20:51;101267.47;;;17.77;69.51
58471;BME280;44258;51.288;12.068;2023-06-24T00:23:38;101261.28;;;17.75;69.61
58471;BME280;44258;51.288;12.068;2023-06-24T00:26:27;101270.97;;;17.79;69.35
58471;BME280;44258;51.288;12.068;2023-06-24T00:29:14;101269.34;;;17.77;69.54
58471;BME280;44258;51.288;12.068;2023-06-24T00:32:01;101258.03;;;17.70;69.99
58471;BME280;44258;51.288;12.068;2023-06-24T00:34:52;101262.19;;;17.76;69.89
58471;BME280;44258;51.288;12.068;2023-06-24T00:37:45;101261.28;;;17.75;69.86
58471;BME280;44258;51.288;12.068;2023-06-24T00:40:33;101268.13;;;17.81;69.74
58471;BME280;44258;51.288;12.068;2023-06-24T00:43:24;101263.25;;;17.73;69.90
58471;BME280;44258;51.288;12.068;2023-06-24T00:46:11;101259.34;;;17.64;69.70
58471;BME280;44258;51.288;12.068;2023-06-24T00:49:03;101256.19;;;17.58;70.26
58471;BME280;44258;51.288;12.068;2023-06-24T00:51:51;101263.94;;;17.51;70.09
58471;BME280;44258;51.288;12.068;2023-06-24T00:54:40;101268.69;;;17.47;70.60
58471;BME280;44258;51.288;12.068;2023-06-24T00:57:27;101264.78;;;17.51;70.26
58471;BME280;44258;51.288;12.068;2023-06-24T01:00:15;101265.31;;;17.57;70.17
58471;BME280;44258;51.288;12.068;2023-06-24T01:03:07;101268.16;;;17.55;69.99
58471;BME280;44258;51.288;12.068;2023-06-24T01:05:55;101273.03;;;17.50;70.04
58471;BME280;44258;51.288;12.068;2023-06-24T01:08:44;101267.19;;;17.43;70.26
58471;BME280;44258;51.288;12.068;2023-06-24T01:11:39;101268.91;;;17.44;70.14
58471;BME280;44258;51.288;12.068;2023-06-24T01:14:26;101264.03;;;17.37;70.02
58471;BME280;44258;51.288;12.068;2023-06-24T01:17:16;101265.94;;;17.22;70.46
58471;BME280;44258;51.288;12.068;2023-06-24T01:20:10;101260.50;;;17.22;70.71
58471;BME280;44258;51.288;12.068;2023-06-24T01:27:00;101252.81;;;17.28;70.58
58471;BME280;44258;51.288;12.068;2023-06-24T01:30:13;101257.69;;;17.36;70.42
58471;BME280;44258;51.288;12.068;2023-06-24T01:33:09;101248.78;;;17.34;69.92
58471;BME280;44258;51.288;12.068;2023-06-24T01:36:01;101240.75;;;17.32;70.31
58471;BME280;44258;51.288;12.068;2023-06-24T01:38:57;101236.19;;;17.33;70.25
58471;BME280;44258;51.288;12.068;2023-06-24T01:41:56;101235.41;;;17.31;70.20
58471;BME280;44258;51.288;12.068;2023-06-24T01:44:47;101239.66;;;17.22;70.24
58471;BME280;44258;51.288;12.068;2023-06-24T01:47:36;101234.09;;;17.24;69.60
58471;BME280;44258;51.288;12.068;2023-06-24T01:50:33;101230.50;;;17.23;69.88
58471;BME280;44258;51.288;12.068;2023-06-24T01:53:22;101231.50;;;17.22;69.68
58471;BME280;44258;51.288;12.068;2023-06-24T01:56:12;101235.19;;;17.21;69.64
58471;BME280;44258;51.288;12.068;2023-06-24T01:59:04;101230.03;;;17.17;69.86
58471;BME280;44258;51.288;12.068;2023-06-24T02:01:53;101230.72;;;17.20;69.77
58471;BME280;44258;51.288;12.068;2023-06-24T02:04:42;101228.09;;;17.19;69.81
58471;BME280;44258;51.288;12.068;2023-06-24T02:07:33;101221.97;;;17.15;69.94
58471;BME280;44258;51.288;12.068;2023-06-24T02:10:23;101226.34;;;17.18;69.73
58471;BME280;44258;51.288;12.068;2023-06-24T02:13:13;101236.09;;;17.07;70.08
58471;BME280;44258;51.288;12.068;2023-06-24T02:16:00;101233.47;;;17.06;69.57
58471;BME280;44258;51.288;12.068;2023-06-24T02:18:48;101224.13;;;16.97;69.62
58471;BME280;44258;51.288;12.068;2023-06-24T02:21:38;101224.09;;;16.84;69.81
58471;BME280;44258;51.288;12.068;2023-06-24T02:24:28;101228.13;;;16.91;69.71
58471;BME280;44258;51.288;12.068;2023-06-24T02:27:19;101226.50;;;16.89;69.66
58471;BME280;44258;51.288;12.068;2023-06-24T02:30:08;101227.25;;;16.91;69.46
58471;BME280;44258;51.288;12.068;2023-06-24T02:32:58;101220.63;;;16.82;69.56
58471;BME280;44258;51.288;12.068;2023-06-24T02:35:45;101228.88;;;16.81;69.26
58471;BME280;44258;51.288;12.068;2023-06-24T02:38:32;101233.03;;;16.99;68.75
58471;BME280;44258;51.288;12.068;2023-06-24T02:41:22;101235.50;;;16.89;69.02
58471;BME280;44258;51.288;12.068;2023-06-24T02:44:08;101232.34;;;16.83;69.08
58471;BME280;44258;51.288;12.068;2023-06-24T02:46:58;101243.59;;;17.04;68.44
58471;BME280;44258;51.288;12.068;2023-06-24T02:49:46;101246.28;;;16.91;68.42
58471;BME280;44258;51.288;12.068;2023-06-24T02:52:35;101241.28;;;16.85;68.54
58471;BME280;44258;51.288;12.068;2023-06-24T02:55:26;101238.22;;;16.77;69.15
58471;BME280;44258;51.288;12.068;2023-06-24T02:58:14;101237.34;;;16.76;69.10
58471;BME280;44258;51.288;12.068;2023-06-24T03:01:08;101239.72;;;16.68;69.26
58471;BME280;44258;51.288;12.068;2023-06-24T03:04:00;101243.28;;;16.68;69.34
58471;BME280;44258;51.288;12.068;2023-06-24T03:06:50;101250.56;;;16.68;69.28
58471;BME280;44258;51.288;12.068;2023-06-24T03:09:40;101254.47;;;16.64;69.66
58471;BME280;44258;51.288;12.068;2023-06-24T03:12:28;101254.38;;;16.65;69.48
58471;BME280;44258;51.288;12.068;2023-06-24T03:15:16;101262.41;;;16.67;69.33
58471;BME280;44258;51.288;12.068;2023-06-24T03:18:06;101265.75;;;16.58;69.46
58471;BME280;44258;51.288;12.068;2023-06-24T03:20:54;101264.56;;;16.62;69.48
58471;BME280;44258;51.288;12.068;2023-06-24T03:23:54;101266.72;;;16.84;68.75
58471;BME280;44258;51.288;12.068;2023-06-24T03:26:43;101274.38;;;16.77;68.73
58471;BME280;44258;51.288;12.068;2023-06-24T03:29:31;101273.41;;;16.78;68.55
58471;BME280;44258;51.288;12.068;2023-06-24T03:32:20;101281.47;;;16.80;68.71
58471;BME280;44258;51.288;12.068;2023-06-24T03:35:16;101275.28;;;16.78;68.99
58471;BME280;44258;51.288;12.068;2023-06-24T03:38:02;101277.44;;;16.85;68.35
58471;BME280;44258;51.288;12.068;2023-06-24T03:40:55;101279.97;;;16.88;68.53
58471;BME280;44258;51.288;12.068;2023-06-24T03:43:42;101284.53;;;16.88;68.45
58471;BME280;44258;51.288;12.068;2023-06-24T03:46:30;101283.00;;;16.84;68.36
58471;BME280;44258;51.288;12.068;2023-06-24T03:49:20;101285.41;;;16.88;68.63
58471;BME280;44258;51.288;12.068;2023-06-24T03:52:07;101296.59;;;16.84;68.71
58471;BME280;44258;51.288;12.068;2023-06-24T03:54:57;101297.34;;;16.86;68.84
58471;BME280;44258;51.288;12.068;2023-06-24T03:57:43;101299.53;;;16.93;68.61
58471;BME280;44258;51.288;12.068;2023-06-24T04:03:08;101298.91;;;16.90;68.30
58471;BME280;44258;51.288;12.068;2023-06-24T04:05:56;101307.31;;;16.85;68.43
58471;BME280;44258;51.288;12.068;2023-06-24T04:08:43;101315.47;;;16.85;68.35
58471;BME280;44258;51.288;12.068;2023-06-24T04:11:30;101320.63;;;16.90;68.33
58471;BME280;44258;51.288;12.068;2023-06-24T04:14:17;101329.72;;;16.89;67.88
58471;BME280;44258;51.288;12.068;2023-06-24T04:17:04;101323.00;;;16.82;68.21
58471;BME280;44258;51.288;12.068;2023-06-24T04:19:51;101325.44;;;16.99;67.77
58471;BME280;44258;51.288;12.068;2023-06-24T04:22:40;101322.50;;;16.75;68.51
58471;BME280;44258;51.288;12.068;2023-06-24T04:25:28;101322.81;;;16.70;68.61
58471;BME280;44258;51.288;12.068;2023-06-24T04:28:17;101329.47;;;16.79;68.23
58471;BME280;44258;51.288;12.068;2023-06-24T04:31:04;101330.63;;;16.48;69.21
58471;BME280;44258;51.288;12.068;2023-06-24T04:33:51;101337.19;;;16.58;69.36
58471;BME280;44258;51.288;12.068;2023-06-24T04:36:38;101341.28;;;16.51;69.13
58471;BME280;44258;51.288;12.068;2023-06-24T04:39:27;101353.09;;;16.64;69.27
58471;BME280;44258;51.288;12.068;2023-06-24T04:42:14;101351.59;;;16.73;68.88
58471;BME280;44258;51.288;12.068;2023-06-24T04:45:01;101354.41;;;16.86;68.56
58471;BME280;44258;51.288;12.068;2023-06-24T04:47:51;101357.75;;;16.89;68.23
58471;BME280;44258;51.288;12.068;2023-06-24T04:50:40;101348.44;;;16.93;68.85
58471;BME280;44258;51.288;12.068;2023-06-24T04:53:27;101342.72;;;16.98;68.79
58471;BME280;44258;51.288;12.068;2023-06-24T04:56:16;101354.81;;;17.07;68.43
58471;BME280;44258;51.288;12.068;2023-06-24T04:59:03;101361.69;;;17.12;68.10
58471;BME280;44258;51.288;12.068;2023-06-24T05:01:49;101358.09;;;17.39;67.46
58471;BME280;44258;51.288;12.068;2023-06-24T05:04:37;101366.22;;;17.26;67.75
58471;BME280;44258;51.288;12.068;2023-06-24T05:07:24;101366.31;;;17.25;68.09
58471;BME280;44258;51.288;12.068;2023-06-24T05:10:12;101361.75;;;17.25;68.17
58471;BME280;44258;51.288;12.068;2023-06-24T05:13:01;101367.88;;;17.14;68.09
58471;BME280;44258;51.288;12.068;2023-06-24T05:15:47;101362.97;;;17.07;68.68
58471;BME280;44258;51.288;12.068;2023-06-24T05:18:34;101367.50;;;17.21;68.27
58471;BME280;44258;51.288;12.068;2023-06-24T05:21:21;101363.00;;;17.20;67.59
58471;BME280;44258;51.288;12.068;2023-06-24T05:24:09;101362.44;;;17.14;67.98
58471;BME280;44258;51.288;12.068;2023-06-24T05:26:55;101364.91;;;17.32;67.02
58471;BME280;44258;51.288;12.068;2023-06-24T05:29:44;101376.59;;;17.20;66.38
58471;BME280;44258;51.288;12.068;2023-06-24T05:32:30;101373.00;;;17.46;66.89
58471;BME280;44258;51.288;12.068;2023-06-24T05:35:17;101375.44;;;17.64;65.86
58471;BME280;44258;51.288;12.068;2023-06-24T05:38:04;101372.38;;;17.68;65.58
58471;BME280;44258;51.288;12.068;2023-06-24T05:40:51;101378.06;;;17.91;65.23
58471;BME280;44258;51.288;12.068;2023-06-24T05:43:38;101383.25;;;17.68;65.39
58471;BME280;44258;51.288;12.068;2023-06-24T05:46:26;101382.31;;;17.82;65.27
58471;BME280;44258;51.288;12.068;2023-06-24T05:49:17;101383.53;;;18.04;65.64
58471;BME280;44258;51.288;12.068;2023-06-24T05:52:04;101387.91;;;18.19;64.04
58471;BME280;44258;51.288;12.068;2023-06-24T05:54:51;101387.78;;;18.21;63.85
58471;BME280;44258;51.288;12.068;2023-06-24T05:57:38;101380.50;;;18.21;63.15
58471;BME280;44258;51.288;12.068;2023-06-24T06:00:25;101385.56;;;18.51;64.18
58471;BME280;44258;51.288;12.068;2023-06-24T06:03:14;101382.19;;;18.61;63.25
58471;BME280;44258;51.288;12.068;2023-06-24T06:06:01;101388.84;;;18.57;63.03
58471;BME280;44258;51.288;12.068;2023-06-24T06:08:48;101389.09;;;18.41;62.91
58471;BME280;44258;51.288;12.068;2023-06-24T06:11:35;101389.09;;;18.78;63.52
58471;BME280;44258;51.288;12.068;2023-06-24T06:14:21;101389.16;;;18.89;63.00
58471;BME280;44258;51.288;12.068;2023-06-24T06:17:09;101392.09;;;18.62;61.77
58471;BME280;44258;51.288;12.068;2023-06-24T06:19:58;101392.28;;;18.71;61.65
58471;BME280;44258;51.288;12.068;2023-06-24T06:22:44;101384.09;;;18.71;62.03
58471;BME280;44258;51.288;12.068;2023-06-24T06:25:31;101380.44;;;18.97;61.10
58471;BME280;44258;51.288;12.068;2023-06-24T06:28:18;101386.88;;;18.83;61.25
58471;BME280;44258;51.288;12.068;2023-06-24T06:31:05;101385.53;;;19.01;61.21
58471;BME280;44258;51.288;12.068;2023-06-24T06:33:52;101384.00;;;18.73;61.64
58471;BME280;44258;51.288;12.068;2023-06-24T06:36:40;101387.53;;;18.99;60.73
58471;BME280;44258;51.288;12.068;2023-06-24T06:39:27;101380.44;;;18.97;61.11
58471;BME280;44258;51.288;12.068;2023-06-24T06:42:15;101376.69;;;19.10;60.34
58471;BME280;44258;51.288;12.068;2023-06-24T06:45:03;101388.91;;;19.05;60.73
58471;BME280;44258;51.288;12.068;2023-06-24T06:47:50;101379.91;;;18.42;62.83
58471;BME280;44258;51.288;12.068;2023-06-24T06:50:36;101385.38;;;18.79;62.74
58471;BME280;44258;51.288;12.068;2023-06-24T06:53:25;101387.13;;;18.92;60.59
58471;BME280;44258;51.288;12.068;2023-06-24T06:56:16;101381.50;;;18.70;61.42
58471;BME280;44258;51.288;12.068;2023-06-24T06:59:03;101384.28;;;18.94;61.48
58471;BME280;44258;51.288;12.068;2023-06-24T07:01:50;101392.38;;;18.70;61.32
58471;BME280;44258;51.288;12.068;2023-06-24T07:04:39;101389.28;;;19.00;61.36
58471;BME280;44258;51.288;12.068;2023-06-24T07:07:25;101383.84;;;18.87;61.49
58471;BME280;44258;51.288;12.068;2023-06-24T07:10:15;101386.66;;;18.99;61.03
58471;BME280;44258;51.288;12.068;2023-06-24T07:13:02;101376.00;;;19.20;60.14
58471;BME280;44258;51.288;12.068;2023-06-24T07:15:49;101379.09;;;19.50;59.07
58471;BME280;44258;51.288;12.068;2023-06-24T07:18:36;101378.88;;;19.29;59.63
58471;BME280;44258;51.288;12.068;2023-06-24T07:21:23;101384.81;;;19.94;58.81
58471;BME280;44258;51.288;12.068;2023-06-24T07:24:09;101385.47;;;19.98;56.61
58471;BME280;44258;51.288;12.068;2023-06-24T07:26:58;101386.06;;;19.90;56.94
58471;BME280;44258;51.288;12.068;2023-06-24T07:29:45;101388.81;;;19.66;56.44
58471;BME280;44258;51.288;12.068;2023-06-24T07:32:32;101394.66;;;19.37;57.22
58471;BME280;44258;51.288;12.068;2023-06-24T07:35:20;101392.22;;;19.45;56.65
58471;BME280;44258;51.288;12.068;2023-06-24T07:38:06;101396.31;;;19.75;55.84
58471;BME280;44258;51.288;12.068;2023-06-24T07:40:53;101393.97;;;19.82;57.34
58471;BME280;44258;51.288;12.068;2023-06-24T07:43:42;101393.91;;;20.17;54.70
58471;BME280;44258;51.288;12.068;2023-06-24T07:46:29;101392.66;;;20.44;55.37
58471;BME280;44258;51.288;12.068;2023-06-24T07:49:16;101388.22;;;20.77;54.09
58471;BME280;44258;51.288;12.068;2023-06-24T07:52:03;101391.66;;;20.90;54.51
58471;BME280;44258;51.288;12.068;2023-06-24T07:54:50;101399.66;;;21.25;52.63
58471;BME280;44258;51.288;12.068;2023-06-24T07:57:37;101399.31;;;21.72;52.69
58471;BME280;44258;51.288;12.068;2023-06-24T08:00:26;101402.69;;;21.76;50.32
58471;BME280;44258;51.288;12.068;2023-06-24T08:03:13;101405.78;;;22.03;51.25
58471;BME280;44258;51.288;12.068;2023-06-24T08:06:00;101403.84;;;21.41;52.04
58471;BME280;44258;51.288;12.068;2023-06-24T08:08:47;101403.00;;;20.74;52.66
58471;BME280;44258;51.288;12.068;2023-06-24T08:11:34;101405.91;;;21.05;52.97
58471;BME280;44258;51.288;12.068;2023-06-24T08:14:21;101392.19;;;21.60;49.12
58471;BME280;44258;51.288;12.068;2023-06-24T08:17:09;101394.94;;;20.72;48.71
58471;BME280;44258;51.288;12.068;2023-06-24T08:19:56;101390.03;;;21.42;49.52
58471;BME280;44258;51.288;12.068;2023-06-24T08:22:43;101390.88;;;21.75;49.00
58471;BME280;44258;51.288;12.068;2023-06-24T08:25:30;101391.13;;;21.72;49.94
58471;BME280;44258;51.288;12.068;2023-06-24T08:28:18;101384.44;;;21.86;47.12
58471;BME280;44258;51.288;12.068;2023-06-24T08:31:05;101382.31;;;21.68;47.77
58471;BME280;44258;51.288;12.068;2023-06-24T08:33:53;101386.56;;;22.24;46.24
58471;BME280;44258;51.288;12.068;2023-06-24T08:36:41;101372.50;;;22.08;46.73
58471;BME280;44258;51.288;12.068;2023-06-24T08:39:28;101375.34;;;22.27;46.09
58471;BME280;44258;51.288;12.068;2023-06-24T08:42:15;101381.78;;;22.57;46.39
58471;BME280;44258;51.288;12.068;2023-06-24T08:45:03;101378.06;;;23.08;45.30
58471;BME280;44258;51.288;12.068;2023-06-24T08:47:50;101383.56;;;23.28;45.98
58471;BME280;44258;51.288;12.068;2023-06-24T08:50:44;101383.00;;;23.15;45.45
58471;BME280;44258;51.288;12.068;2023-06-24T08:53:33;101394.56;;;22.68;44.89
58471;BME280;44258;51.288;12.068;2023-06-24T08:56:21;101385.13;;;23.01;46.46
58471;BME280;44258;51.288;12.068;2023-06-24T08:59:08;101382.72;;;23.57;44.05
58471;BME280;44258;51.288;12.068;2023-06-24T09:01:55;101382.59;;;23.68;42.15
58471;BME280;44258;51.288;12.068;2023-06-24T09:04:42;101382.53;;;23.09;42.49
58471;BME280;44258;51.288;12.068;2023-06-24T09:07:30;101367.53;;;23.23;43.07
58471;BME280;44258;51.288;12.068;2023-06-24T09:10:29;101357.44;;;23.24;44.02
58471;BME280;44258;51.288;12.068;2023-06-24T09:13:20;101369.44;;;23.42;43.66
58471;BME280;44258;51.288;12.068;2023-06-24T09:16:12;101362.38;;;23.40;43.38
58471;BME280;44258;51.288;12.068;2023-06-24T09:19:00;101360.75;;;23.18;44.65
58471;BME280;44258;51.288;12.068;2023-06-24T09:21:47;101367.97;;;23.67;41.17
58471;BME280;44258;51.288;12.068;2023-06-24T09:24:37;101367.53;;;23.13;42.74
58471;BME280;44258;51.288;12.068;2023-06-24T09:27:24;101369.81;;;23.08;44.45
58471;BME280;44258;51.288;12.068;2023-06-24T09:30:17;101378.50;;;22.53;45.22
58471;BME280;44258;51.288;12.068;2023-06-24T09:33:05;101373.69;;;22.96;45.38
58471;BME280;44258;51.288;12.068;2023-06-24T09:35:53;101363.66;;;23.55;45.56
58471;BME280;44258;51.288;12.068;2023-06-24T09:38:43;101378.72;;;23.41;45.35
58471;BME280;44258;51.288;12.068;2023-06-24T09:41:32;101381.53;;;22.60;44.23
58471;BME280;44258;51.288;12.068;2023-06-24T09:44:19;101370.75;;;23.58;42.63
58471;BME280;44258;51.288;12.068;2023-06-24T09:47:06;101371.88;;;23.55;42.60
58471;BME280;44258;51.288;12.068;2023-06-24T09:49:53;101368.59;;;24.18;43.08
58471;BME280;44258;51.288;12.068;2023-06-24T09:52:41;101370.16;;;24.58;41.67
58471;BME280;44258;51.288;12.068;2023-06-24T09:55:29;101372.72;;;24.97;39.70
58471;BME280;44258;51.288;12.068;2023-06-24T09:58:18;101361.72;;;24.97;42.16
58471;BME280;44258;51.288;12.068;2023-06-24T10:01:06;101365.09;;;24.91;41.52
58471;BME280;44258;51.288;12.068;2023-06-24T10:03:54;101360.53;;;24.82;42.27
58471;BME280;44258;51.288;12.068;2023-06-24T10:06:40;101353.94;;;25.10;42.94
58471;BME280;44258;51.288;12.068;2023-06-24T10:09:27;101359.69;;;25.35;40.97
58471;BME280;44258;51.288;12.068;2023-06-24T10:12:15;101354.97;;;25.27;39.28
58471;BME280;44258;51.288;12.068;2023-06-24T10:15:05;101342.38;;;25.25;40.37
58471;BME280;44258;51.288;12.068;2023-06-24T10:17:52;101340.34;;;25.27;38.88
58471;BME280;44258;51.288;12.068;2023-06-24T10:20:39;101337.66;;;25.35;40.43
58471;BME280;44258;51.288;12.068;2023-06-24T10:23:30;101337.34;;;25.56;39.40
58471;BME280;44258;51.288;12.068;2023-06-24T10:26:22;101339.34;;;25.72;39.02
58471;BME280;44258;51.288;12.068;2023-06-24T10:29:10;101339.16;;;25.11;39.03
58471;BME280;44258;51.288;12.068;2023-06-24T10:32:05;101336.94;;;25.33;39.38
58471;BME280;44258;51.288;12.068;2023-06-24T10:34:54;101330.59;;;25.15;38.79
58471;BME280;44258;51.288;12.068;2023-06-24T10:37:54;101331.03;;;25.64;38.75
58471;BME280;44258;51.288;12.068;2023-06-24T10:40:42;101329.34;;;25.71;38.21
58471;BME280;44258;51.288;12.068;2023-06-24T10:43:29;101329.47;;;25.07;37.20
58471;BME280;44258;51.288;12.068;2023-06-24T10:46:16;101329.88;;;25.13;37.03
58471;BME280;44258;51.288;12.068;2023-06-24T10:49:07;101328.41;;;24.72;38.54
58471;BME280;44258;51.288;12.068;2023-06-24T10:51:54;101318.69;;;25.50;37.42
58471;BME280;44258;51.288;12.068;2023-06-24T10:54:41;101324.06;;;25.51;36.70
58471;BME280;44258;51.288;12.068;2023-06-24T10:57:28;101320.66;;;25.58;36.05
58471;BME280;44258;51.288;12.068;2023-06-24T11:00:15;101312.06;;;25.61;37.42
58471;BME280;44258;51.288;12.068;2023-06-24T11:03:08;101316.03;;;25.40;35.95
58471;BME280;44258;51.288;12.068;2023-06-24T11:05:56;101303.44;;;25.82;35.54
58471;BME280;44258;51.288;12.068;2023-06-24T11:08:44;101312.56;;;25.82;34.98
58471;BME280;44258;51.288;12.068;2023-06-24T11:11:31;101310.66;;;25.83;35.65
58471;BME280;44258;51.288;12.068;2023-06-24T11:14:19;101314.53;;;25.28;34.70
58471;BME280;44258;51.288;12.068;2023-06-24T11:17:06;101299.81;;;25.81;34.41
58471;BME280;44258;51.288;12.068;2023-06-24T11:19:53;101298.63;;;25.84;34.04
58471;BME280;44258;51.288;12.068;2023-06-24T11:22:43;101295.19;;;25.38;35.59
58471;BME280;44258;51.288;12.068;2023-06-24T11:25:30;101290.16;;;25.77;35.68
58471;BME280;44258;51.288;12.068;2023-06-24T11:28:17;101289.16;;;25.86;35.02
58471;BME280;44258;51.288;12.068;2023-06-24T11:31:07;101289.56;;;25.91;34.61
58471;BME280;44258;51.288;12.068;2023-06-24T11:33:55;101296.91;;;26.09;36.25
58471;BME280;44258;51.288;12.068;2023-06-24T11:36:42;101290.38;;;26.10;36.12
58471;BME280;44258;51.288;12.068;2023-06-24T11:39:31;101289.28;;;26.45;36.35
58471;BME280;44258;51.288;12.068;2023-06-24T11:42:18;101287.09;;;25.88;33.98
58471;BME280;44258;51.288;12.068;2023-06-24T11:45:08;101288.69;;;25.65;35.11
58471;BME280;44258;51.288;12.068;2023-06-24T11:48:02;101282.63;;;26.14;34.05
58471;BME280;44258;51.288;12.068;2023-06-24T11:50:53;101280.00;;;25.51;33.99
58471;BME280;44258;51.288;12.068;2023-06-24T11:53:40;101283.38;;;25.98;33.73
58471;BME280;44258;51.288;12.068;2023-06-24T11:56:39;101278.25;;;26.03;35.65
58471;BME280;44258;51.288;12.068;2023-06-24T11:59:27;101271.72;;;26.46;36.28
58471;BME280;44258;51.288;12.068;2023-06-24T12:02:15;101271.44;;;26.66;34.76
58471;BME280;44258;51.288;12.068;2023-06-24T12:05:02;101276.66;;;26.69;34.32
58471;BME280;44258;51.288;12.068;2023-06-24T12:07:49;101272.34;;;26.91;35.53
58471;BME280;44258;51.288;12.068;2023-06-24T12:10:36;101278.75;;;27.08;35.56
58471;BME280;44258;51.288;12.068;2023-06-24T12:13:25;101268.28;;;27.28;36.01
58471;BME280;44258;51.288;12.068;2023-06-24T12:16:12;101267.91;;;27.31;34.59
58471;BME280;44258;51.288;12.068;2023-06-24T12:18:59;101269.47;;;27.25;33.96
58471;BME280;44258;51.288;12.068;2023-06-24T12:21:46;101262.44;;;26.56;33.68
58471;BME280;44258;51.288;12.068;2023-06-24T12:24:32;101255.97;;;26.73;32.56
58471;BME280;44258;51.288;12.068;2023-06-24T12:27:20;101246.78;;;26.73;33.25
58471;BME280;44258;51.288;12.068;2023-06-24T12:30:10;101255.53;;;26.51;35.50
58471;BME280;44258;51.288;12.068;2023-06-24T12:32:57;101251.44;;;26.13;33.08
58471;BME280;44258;51.288;12.068;2023-06-24T12:35:44;101251.03;;;26.00;34.05
58471;BME280;44258;51.288;12.068;2023-06-24T12:38:31;101250.88;;;25.75;34.44
58471;BME280;44258;51.288;12.068;2023-06-24T12:41:18;101250.47;;;25.96;33.43
58471;BME280;44258;51.288;12.068;2023-06-24T12:44:05;101247.03;;;26.28;34.46
58471;BME280;44258;51.288;12.068;2023-06-24T12:46:53;101246.22;;;26.53;34.59
58471;BME280;44258;51.288;12.068;2023-06-24T12:49:40;101244.97;;;26.30;33.44
58471;BME280;44258;51.288;12.068;2023-06-24T12:52:27;101237.88;;;26.28;34.24
58471;BME280;44258;51.288;12.068;2023-06-24T12:55:13;101243.59;;;26.35;34.07
58471;BME280;44258;51.288;12.068;2023-06-24T12:58:00;101239.75;;;26.27;32.65
58471;BME280;44258;51.288;12.068;2023-06-24T13:00:49;101234.22;;;26.19;34.05
58471;BME280;44258;51.288;12.068;2023-06-24T13:03:38;101231.16;;;26.22;32.88
58471;BME280;44258;51.288;12.068;2023-06-24T13:06:25;101238.22;;;26.25;32.79
58471;BME280;44258;51.288;12.068;2023-06-24T13:09:12;101243.91;;;25.63;32.70
58471;BME280;44258;51.288;12.068;2023-06-24T13:11:59;101234.25;;;25.93;33.03
58471;BME280;44258;51.288;12.068;2023-06-24T13:14:46;101232.38;;;25.94;33.88
58471;BME280;44258;51.288;12.068;2023-06-24T13:17:34;101238.94;;;25.40;34.11
58471;BME280;44258;51.288;12.068;2023-06-24T13:20:23;101234.63;;;25.20;33.09
58471;BME280;44258;51.288;12.068;2023-06-24T13:23:10;101233.59;;;25.65;33.02
58471;BME280;44258;51.288;12.068;2023-06-24T13:25:57;101230.44;;;26.20;32.31
58471;BME280;44258;51.288;12.068;2023-06-24T13:28:44;101226.41;;;26.57;33.75
58471;BME280;44258;51.288;12.068;2023-06-24T13:31:30;101230.25;;;25.53;32.79
58471;BME280;44258;51.288;12.068;2023-06-24T13:34:18;101232.72;;;25.64;32.93
58471;BME280;44258;51.288;12.068;2023-06-24T13:37:06;101225.38;;;26.07;32.64
58471;BME280;44258;51.288;12.068;2023-06-24T13:39:54;101221.47;;;25.84;32.76
58471;BME280;44258;51.288;12.068;2023-06-24T13:42:41;101216.06;;;26.51;33.22
58471;BME280;44258;51.288;12.068;2023-06-24T13:45:31;101226.31;;;26.83;31.74
58471;BME280;44258;51.288;12.068;2023-06-24T13:48:23;101222.38;;;26.35;31.68
58471;BME280;44258;51.288;12.068;2023-06-24T13:54:46;101220.25;;;26.13;31.70
58471;BME280;44258;51.288;12.068;2023-06-24T13:57:36;101218.69;;;26.10;31.91
58471;BME280;44258;51.288;12.068;2023-06-24T14:00:23;101210.66;;;25.90;31.41
58471;BME280;44258;51.288;12.068;2023-06-24T14:03:11;101213.06;;;26.36;31.48
58471;BME280;44258;51.288;12.068;2023-06-24T14:05:59;101202.47;;;26.66;31.05
58471;BME280;44258;51.288;12.068;2023-06-24T14:08:47;101206.09;;;26.07;32.04
58471;BME280;44258;51.288;12.068;2023-06-24T14:11:36;101193.47;;;26.56;32.53
58471;BME280;44258;51.288;12.068;2023-06-24T14:14:22;101205.25;;;26.90;30.97
58471;BME280;44258;51.288;12.068;2023-06-24T14:17:10;101188.50;;;27.33;31.93
58471;BME280;44258;51.288;12.068;2023-06-24T14:19:57;101188.97;;;27.53;30.39
58471;BME280;44258;51.288;12.068;2023-06-24T14:22:44;101189.34;;;27.34;30.21
58471;BME280;44258;51.288;12.068;2023-06-24T14:25:33;101183.78;;;26.35;31.61
58471;BME280;44258;51.288;12.068;2023-06-24T14:28:21;101187.75;;;26.41;31.35
58471;BME280;44258;51.288;12.068;2023-06-24T14:31:08;101193.72;;;26.20;30.73
58471;BME280;44258;51.288;12.068;2023-06-24T14:33:56;101179.56;;;25.72;32.28
58471;BME280;44258;51.288;12.068;2023-06-24T14:36:43;101185.69;;;26.43;30.69
58471;BME280;44258;51.288;12.068;2023-06-24T14:39:30;101174.06;;;25.38;31.86